createdAt,value
2023-03-27T00:00:13.394Z,10.13
2023-03-27T00:02:41.576Z,9.87
2023-03-27T00:05:10.364Z,9.10
2023-03-27T00:07:41.457Z,9.60
2023-03-27T00:10:10.431Z,8.57
2023-03-27T00:12:40.450Z,7.73
2023-03-27T00:15:09.925Z,7.13
2023-03-27T00:17:38.107Z,6.40
2023-03-27T00:20:06.891Z,6.53
2023-03-27T00:22:36.010Z,5.53
2023-03-27T00:25:05.345Z,5.50
2023-03-27T00:27:33.499Z,6.03
2023-03-27T00:30:06.467Z,5.70
2023-03-27T00:32:34.984Z,6.77
2023-03-27T00:35:03.463Z,5.20
2023-03-27T00:37:32.378Z,6.10
2023-03-27T00:40:00.424Z,5.63
2023-03-27T00:42:28.398Z,6.03
2023-03-27T00:44:56.598Z,6.67
2023-03-27T00:47:33.141Z,7.10
2023-03-27T00:50:03.839Z,7.83
2023-03-27T00:52:32.518Z,7.53
2023-03-27T00:55:05.461Z,6.43
2023-03-27T00:57:33.786Z,7.83
2023-03-27T01:00:07.650Z,6.97
2023-03-27T01:02:38.845Z,7.43
2023-03-27T01:05:09.278Z,6.17
2023-03-27T01:07:38.392Z,6.80
2023-03-27T01:10:08.787Z,6.07
2023-03-27T01:12:45.404Z,6.60
2023-03-27T01:15:25.796Z,5.83
2023-03-27T01:18:06.326Z,5.90
2023-03-27T01:21:07.545Z,5.70
2023-03-27T01:24:16.879Z,5.07
2023-03-27T01:27:02.620Z,5.00
2023-03-27T01:29:59.196Z,4.87
2023-03-27T01:33:09.051Z,5.10
2023-03-27T01:35:56.694Z,4.80
2023-03-27T01:39:09.097Z,5.33
2023-03-27T01:41:42.581Z,6.00
2023-03-27T01:44:17.501Z,5.13
2023-03-27T01:46:51.090Z,5.70
2023-03-27T01:49:25.071Z,5.13
2023-03-27T01:51:59.292Z,5.50
2023-03-27T01:54:31.937Z,5.37
2023-03-27T01:57:05.651Z,4.90
2023-03-27T01:59:38.664Z,5.00
2023-03-27T02:02:11.362Z,5.33
2023-03-27T02:04:45.177Z,5.03
2023-03-27T02:07:18.880Z,6.83
2023-03-27T02:09:52.241Z,7.20
2023-03-27T02:12:22.959Z,6.30
2023-03-27T02:14:55.680Z,4.10
2023-03-27T02:17:26.470Z,5.20
2023-03-27T02:19:59.641Z,4.90
2023-03-27T02:22:38.499Z,4.27
2023-03-27T02:25:27.727Z,3.43
2023-03-27T02:28:21.047Z,3.77
2023-03-27T02:31:05.867Z,3.70
2023-03-27T02:34:01.884Z,3.13
2023-03-27T02:36:40.610Z,3.80
2023-03-27T02:39:15.131Z,3.43
2023-03-27T02:41:53.401Z,3.50
2023-03-27T02:44:31.172Z,3.13
2023-03-27T02:47:06.730Z,2.43
2023-03-27T02:49:38.699Z,3.00
2023-03-27T02:52:11.298Z,2.57
2023-03-27T02:54:43.659Z,2.80
2023-03-27T02:57:19.539Z,2.17
2023-03-27T02:59:51.963Z,2.73
2023-03-27T03:02:24.846Z,2.80
2023-03-27T03:04:59.121Z,2.43
2023-03-27T03:07:27.556Z,2.30
2023-03-27T03:09:55.604Z,2.87
2023-03-27T03:12:25.023Z,2.57
2023-03-27T03:14:53.266Z,2.53
2023-03-27T03:17:21.593Z,2.20
2023-03-27T03:19:49.872Z,2.37
2023-03-27T03:22:18.112Z,2.47
2023-03-27T03:24:46.098Z,2.30
2023-03-27T03:27:14.338Z,2.40
2023-03-27T03:29:44.421Z,2.20
2023-03-27T03:32:12.446Z,2.30
2023-03-27T03:34:41.630Z,2.23
2023-03-27T03:37:10.782Z,2.13
2023-03-27T03:39:38.895Z,2.23
2023-03-27T03:42:07.002Z,2.00
2023-03-27T03:44:35.066Z,1.93
2023-03-27T03:47:04.580Z,1.90
2023-03-27T03:49:32.609Z,2.00
2023-03-27T03:52:03.592Z,1.80
2023-03-27T03:54:33.039Z,2.07
2023-03-27T03:57:01.229Z,2.20
2023-03-27T03:59:30.079Z,1.57
2023-03-27T04:01:58.166Z,1.70
2023-03-27T04:04:27.564Z,1.60
2023-03-27T04:06:58.337Z,1.60
2023-03-27T04:09:26.452Z,1.50
2023-03-27T04:11:54.446Z,1.50
2023-03-27T04:14:22.631Z,1.60
2023-03-27T04:16:51.239Z,1.50
2023-03-27T04:19:19.248Z,1.60
2023-03-27T04:21:49.042Z,1.50
2023-03-27T04:24:18.292Z,1.50
2023-03-27T04:26:46.717Z,1.70
2023-03-27T04:29:14.677Z,1.53
2023-03-27T04:31:46.581Z,2.00
2023-03-27T04:34:14.739Z,2.03
2023-03-27T04:36:42.907Z,1.70
2023-03-27T04:39:12.356Z,1.63
2023-03-27T04:41:40.593Z,2.30
2023-03-27T04:44:09.044Z,2.00
2023-03-27T04:46:37.138Z,1.60
2023-03-27T04:49:06.132Z,1.60
2023-03-27T04:51:34.194Z,1.70
2023-03-27T04:54:04.829Z,1.77
2023-03-27T04:56:35.217Z,1.70
2023-03-27T04:59:03.759Z,1.50
2023-03-27T05:01:32.130Z,2.10
2023-03-27T05:04:02.504Z,1.70
2023-03-27T05:06:30.647Z,1.97
2023-03-27T05:08:59.083Z,2.00
2023-03-27T05:11:27.419Z,1.70
2023-03-27T05:13:56.944Z,2.23
2023-03-27T05:16:26.606Z,2.20
2023-03-27T05:18:54.684Z,2.13
2023-03-27T05:21:22.669Z,2.00
2023-03-27T05:23:50.636Z,1.80
2023-03-27T05:26:19.329Z,2.27
2023-03-27T05:28:47.529Z,2.30
2023-03-27T05:31:17.235Z,2.17
2023-03-27T05:33:45.355Z,2.30
2023-03-27T05:36:15.397Z,2.30
2023-03-27T05:38:44.381Z,2.50
2023-03-27T05:41:12.581Z,2.43
2023-03-27T05:43:40.703Z,2.00
2023-03-27T05:46:08.814Z,1.90
2023-03-27T05:48:38.634Z,1.90
2023-03-27T05:51:07.317Z,1.90
2023-03-27T05:53:36.743Z,2.40
2023-03-27T05:56:05.095Z,1.90
2023-03-27T05:58:33.044Z,3.57
2023-03-27T06:01:01.453Z,2.67
2023-03-27T06:03:30.779Z,2.50
2023-03-27T06:06:01.116Z,2.00
2023-03-27T06:08:29.811Z,2.60
2023-03-27T06:10:58.738Z,2.40
2023-03-27T06:13:27.117Z,2.20
2023-03-27T06:15:56.665Z,2.10
2023-03-27T06:18:24.995Z,2.00
2023-03-27T06:20:53.166Z,1.83
2023-03-27T06:23:22.889Z,2.10
2023-03-27T06:25:51.460Z,1.80
2023-03-27T06:28:19.974Z,1.73
2023-03-27T06:30:48.672Z,1.90
2023-03-27T06:33:16.859Z,1.80
2023-03-27T06:35:52.671Z,1.90
2023-03-27T06:38:23.733Z,1.70
2023-03-27T06:40:51.932Z,2.33
2023-03-27T06:43:22.493Z,2.00
2023-03-27T06:45:52.197Z,2.07
2023-03-27T06:48:22.626Z,1.80
2023-03-27T06:50:52.308Z,1.57
2023-03-27T06:55:53.320Z,1.40
2023-03-27T06:58:21.843Z,1.60
2023-03-27T07:00:51.354Z,1.80
2023-03-27T07:03:21.316Z,1.70
2023-03-27T07:05:49.735Z,1.40
2023-03-27T07:08:24.261Z,1.70
2023-03-27T07:13:26.297Z,1.40
2023-03-27T07:15:54.950Z,1.50
2023-03-27T07:18:23.442Z,1.60
2023-03-27T07:20:51.477Z,1.60
2023-03-27T07:23:19.721Z,1.33
2023-03-27T07:25:50.145Z,1.40
2023-03-27T07:28:20.962Z,1.50
2023-03-27T07:30:48.959Z,1.40
2023-03-27T07:33:17.081Z,1.30
2023-03-27T07:35:46.528Z,1.50
2023-03-27T07:38:14.739Z,1.50
2023-03-27T07:40:44.089Z,1.47
2023-03-27T07:43:12.355Z,1.30
2023-03-27T07:45:43.066Z,1.40
2023-03-27T07:48:14.306Z,1.30
2023-03-27T07:50:42.531Z,1.30
2023-03-27T07:53:34.200Z,1.47
2023-03-27T07:55:59.730Z,1.50
2023-03-27T07:58:28.249Z,1.37
2023-03-27T08:01:02.608Z,1.20
2023-03-27T08:03:31.912Z,1.43
2023-03-27T08:06:01.618Z,1.40
2023-03-27T08:08:30.866Z,1.43
2023-03-27T08:10:59.850Z,1.40
2023-03-27T08:13:28.009Z,1.50
2023-03-27T08:16:05.561Z,1.40
2023-03-27T08:18:33.833Z,1.40
2023-03-27T08:21:03.371Z,1.40
2023-03-27T08:23:33.120Z,1.40
2023-03-27T08:26:01.651Z,1.33
2023-03-27T08:28:29.999Z,1.20
2023-03-27T08:31:02.898Z,1.50
2023-03-27T08:33:32.667Z,1.40
2023-03-27T08:36:00.834Z,1.43
2023-03-27T08:38:33.258Z,1.60
2023-03-27T08:41:05.285Z,1.30
2023-03-27T08:43:38.310Z,1.40
2023-03-27T08:46:10.105Z,1.40
2023-03-27T08:48:44.833Z,1.30
2023-03-27T08:51:19.828Z,1.23
2023-03-27T08:53:53.096Z,1.40
2023-03-27T08:56:22.246Z,1.20
2023-03-27T08:58:50.472Z,1.37
2023-03-27T09:01:26.478Z,1.30
2023-03-27T09:04:04.270Z,1.40
2023-03-27T09:06:38.537Z,1.60
2023-03-27T09:09:17.155Z,1.40
2023-03-27T09:11:54.900Z,1.33
2023-03-27T09:14:30.877Z,1.63
2023-03-27T09:17:04.491Z,1.40
2023-03-27T09:19:42.713Z,1.30
2023-03-27T09:22:15.928Z,1.33
2023-03-27T09:24:47.716Z,1.30
2023-03-27T09:27:20.416Z,1.90
2023-03-27T09:30:05.621Z,1.50
2023-03-27T09:32:35.048Z,1.10
2023-03-27T09:35:05.902Z,1.43
2023-03-27T09:37:36.868Z,1.50
2023-03-27T09:40:12.925Z,1.80
2023-03-27T09:42:43.464Z,1.30
2023-03-27T09:45:13.889Z,1.63
2023-03-27T09:47:46.672Z,1.50
2023-03-27T09:50:27.734Z,1.50
2023-03-27T09:53:09.375Z,1.20
2023-03-27T09:55:50.694Z,1.50
2023-03-27T09:58:25.979Z,1.50
2023-03-27T10:01:08.694Z,1.67
2023-03-27T10:03:41.642Z,1.90
2023-03-27T10:06:14.993Z,1.20
2023-03-27T10:08:47.256Z,1.17
2023-03-27T10:11:20.929Z,1.30
2023-03-27T10:13:50.942Z,1.40
2023-03-27T10:16:21.631Z,1.40
2023-03-27T10:18:52.536Z,1.50
2023-03-27T10:21:29.154Z,1.30
2023-03-27T10:24:05.690Z,1.50
2023-03-27T10:26:38.256Z,1.60
2023-03-27T10:29:21.956Z,1.60
2023-03-27T10:31:53.329Z,1.47
2023-03-27T10:34:36.675Z,1.97
2023-03-27T10:37:27.450Z,1.60
2023-03-27T10:39:58.128Z,1.43
2023-03-27T10:42:28.316Z,1.50
2023-03-27T10:44:57.715Z,1.30
2023-03-27T10:47:28.292Z,1.60
2023-03-27T10:50:04.412Z,4.93
2023-03-27T10:52:43.344Z,2.60
2023-03-27T10:55:37.348Z,2.57
2023-03-27T10:58:14.772Z,2.00
2023-03-27T11:00:47.636Z,2.93
2023-03-27T11:03:25.623Z,1.93
2023-03-27T11:05:55.481Z,2.07
2023-03-27T11:08:32.063Z,3.23
2023-03-27T11:11:09.692Z,2.90
2023-03-27T11:13:42.879Z,1.90
2023-03-27T11:16:16.907Z,1.80
2023-03-27T11:18:51.318Z,1.60
2023-03-27T11:21:23.753Z,1.93
2023-03-27T11:23:57.722Z,3.33
2023-03-27T11:26:29.895Z,2.67
2023-03-27T11:29:04.216Z,2.00
2023-03-27T11:31:39.446Z,3.40
2023-03-27T11:34:12.092Z,1.40
2023-03-27T11:36:49.449Z,2.07
2023-03-27T11:39:27.735Z,3.07
2023-03-27T11:41:59.978Z,2.13
2023-03-27T11:44:30.586Z,2.13
2023-03-27T11:47:25.441Z,2.10
2023-03-27T11:50:26.237Z,1.80
2023-03-27T11:53:04.882Z,2.00
2023-03-27T11:55:44.980Z,2.43
2023-03-27T11:58:27.166Z,1.73
2023-03-27T12:01:01.850Z,1.77
2023-03-27T12:04:10.308Z,2.40
2023-03-27T12:06:45.884Z,1.63
2023-03-27T12:09:28.060Z,1.40
2023-03-27T12:12:07.617Z,2.57
2023-03-27T12:14:46.515Z,1.60
2023-03-27T12:17:41.572Z,1.50
2023-03-27T12:20:28.502Z,1.50
2023-03-27T12:23:06.284Z,1.50
2023-03-27T12:25:54.527Z,1.43
2023-03-27T12:28:35.926Z,1.53
2023-03-27T12:31:17.579Z,1.70
2023-03-27T12:33:56.713Z,1.53
2023-03-27T12:36:27.913Z,1.40
2023-03-27T12:38:56.611Z,1.50
2023-03-27T12:41:26.085Z,1.80
2023-03-27T12:44:00.328Z,1.30
2023-03-27T12:46:37.433Z,1.73
2023-03-27T12:49:47.559Z,1.90
2023-03-27T12:52:18.775Z,1.67
2023-03-27T12:55:24.119Z,1.60
2023-03-27T12:57:52.398Z,2.40
2023-03-27T13:00:25.709Z,2.53
2023-03-27T13:03:28.453Z,1.70
2023-03-27T13:06:12.787Z,2.53
2023-03-27T13:09:05.212Z,1.70
2023-03-27T13:11:45.874Z,1.90
2023-03-27T13:14:47.757Z,2.17
2023-03-27T13:17:31.278Z,1.80
2023-03-27T13:20:10.839Z,1.53
2023-03-27T13:23:10.694Z,2.10
2023-03-27T13:25:59.402Z,2.20
2023-03-27T13:28:35.741Z,2.10
2023-03-27T13:31:05.906Z,2.10
2023-03-27T13:33:44.998Z,1.90
2023-03-27T13:36:17.750Z,1.93
2023-03-27T13:39:18.420Z,2.67
2023-03-27T13:42:17.095Z,1.60
2023-03-27T13:44:57.834Z,2.00
2023-03-27T13:47:53.532Z,1.93
2023-03-27T13:50:51.450Z,1.73
2023-03-27T13:54:01.203Z,2.00
2023-03-27T13:56:45.524Z,2.27
2023-03-27T13:59:58.739Z,6.03
2023-03-27T14:02:56.257Z,2.00
2023-03-27T14:05:44.852Z,2.53
2023-03-27T14:08:32.991Z,2.57
2023-03-27T14:11:16.869Z,2.20
2023-03-27T14:14:02.310Z,2.50
2023-03-27T14:16:50.558Z,1.70
2023-03-27T14:19:51.730Z,1.60
2023-03-27T14:22:24.110Z,2.50
2023-03-27T14:24:57.777Z,2.20
2023-03-27T14:27:26.435Z,1.70
2023-03-27T14:30:09.614Z,1.40
2023-03-27T14:32:37.658Z,1.70
2023-03-27T14:35:06.498Z,1.40
2023-03-27T14:37:37.040Z,1.50
2023-03-27T14:40:22.958Z,1.70
2023-03-27T14:42:52.608Z,1.30
2023-03-27T14:45:23.872Z,1.40
2023-03-27T14:47:56.592Z,1.40
2023-03-27T14:50:27.233Z,1.73
2023-03-27T14:52:56.325Z,1.50
2023-03-27T14:55:29.875Z,1.33
2023-03-27T14:58:02.374Z,1.20
2023-03-27T15:00:33.465Z,3.37
2023-03-27T15:03:06.644Z,3.10
2023-03-27T15:05:35.176Z,2.20
2023-03-27T15:08:03.637Z,2.67
2023-03-27T15:10:33.592Z,1.80
2023-03-27T15:13:01.583Z,2.00
2023-03-27T15:15:39.074Z,1.97
2023-03-27T15:18:13.210Z,2.37
2023-03-27T15:20:41.653Z,2.40
2023-03-27T15:23:17.147Z,2.10
2023-03-27T15:25:54.279Z,3.23
2023-03-27T15:28:27.456Z,3.07
2023-03-27T15:30:59.429Z,3.97
2023-03-27T15:33:34.208Z,1.60
2023-03-27T15:36:05.625Z,2.43
2023-03-27T15:38:37.236Z,3.33
2023-03-27T15:41:38.872Z,2.90
2023-03-27T15:44:10.852Z,1.90
2023-03-27T15:46:48.924Z,1.83
2023-03-27T15:49:22.934Z,2.37
2023-03-27T15:51:51.107Z,2.30
2023-03-27T15:54:35.424Z,2.13
2023-03-27T15:57:11.684Z,2.13
2023-03-27T15:59:52.353Z,2.57
2023-03-27T16:02:22.475Z,2.93
2023-03-27T16:04:53.580Z,2.43
2023-03-27T16:07:26.034Z,3.40
2023-03-27T16:09:56.797Z,2.10
2023-03-27T16:12:30.932Z,2.50
2023-03-27T16:15:00.361Z,2.90
2023-03-27T16:17:34.754Z,2.50
2023-03-27T16:20:08.094Z,2.00
2023-03-27T16:22:38.573Z,1.80
2023-03-27T16:25:09.819Z,2.40
2023-03-27T16:27:41.638Z,3.30
2023-03-27T16:30:22.611Z,2.73
2023-03-27T16:32:51.172Z,2.43
2023-03-27T16:35:19.321Z,2.33
2023-03-27T16:37:48.014Z,2.60
2023-03-27T16:40:16.516Z,2.93
2023-03-27T16:42:46.194Z,1.90
2023-03-27T16:45:14.446Z,4.70
2023-03-27T16:47:42.429Z,3.77
2023-03-27T16:50:19.753Z,2.80
2023-03-27T16:52:47.732Z,3.90
2023-03-27T16:55:16.192Z,2.20
2023-03-27T16:57:46.861Z,2.33
2023-03-27T17:00:17.842Z,3.00
2023-03-27T17:02:47.041Z,2.60
2023-03-27T17:05:15.894Z,2.20
2023-03-27T17:07:44.876Z,2.33
2023-03-27T17:10:13.176Z,2.00
2023-03-27T17:12:41.333Z,2.10
2023-03-27T17:15:11.836Z,1.47
2023-03-27T17:17:39.948Z,2.20
2023-03-27T17:20:09.313Z,1.83
2023-03-27T17:22:37.558Z,3.20
2023-03-27T17:25:06.244Z,2.30
2023-03-27T17:27:35.002Z,2.07
2023-03-27T17:30:03.385Z,2.03
2023-03-27T17:32:32.869Z,2.37
2023-03-27T17:35:00.936Z,2.90
2023-03-27T17:37:28.985Z,2.83
2023-03-27T17:39:57.436Z,2.20
2023-03-27T17:42:25.723Z,2.53
2023-03-27T17:44:53.760Z,2.47
2023-03-27T17:47:21.738Z,2.40
2023-03-27T17:49:53.429Z,1.90
2023-03-27T17:52:23.395Z,2.10
2023-03-27T17:54:51.504Z,1.87
2023-03-27T17:57:19.536Z,1.80
2023-03-27T17:59:47.799Z,2.00
2023-03-27T18:02:18.499Z,1.90
2023-03-27T18:04:52.104Z,1.80
2023-03-27T18:07:21.665Z,1.90
2023-03-27T18:09:50.282Z,2.20
2023-03-27T18:12:18.357Z,1.90
2023-03-27T18:14:46.586Z,2.70
2023-03-27T18:17:15.964Z,2.10
2023-03-27T18:19:43.959Z,2.00
2023-03-27T18:22:11.940Z,2.10
2023-03-27T18:24:42.341Z,2.00
2023-03-27T18:27:12.179Z,1.70
2023-03-27T18:29:40.442Z,2.00
2023-03-27T18:32:08.474Z,1.90
2023-03-27T18:34:36.526Z,2.30
2023-03-27T18:37:04.682Z,1.93
2023-03-27T18:39:36.076Z,2.20
2023-03-27T18:42:06.015Z,4.20
2023-03-27T18:44:34.191Z,3.27
2023-03-27T18:47:02.324Z,4.90
2023-03-27T18:49:30.577Z,4.63
2023-03-27T18:51:58.636Z,5.30
2023-03-27T18:54:26.780Z,5.40
2023-03-27T18:56:54.848Z,7.13
2023-03-27T18:59:24.419Z,6.00
2023-03-27T19:01:52.547Z,9.60
2023-03-27T19:04:21.115Z,10.43
2023-03-27T19:06:49.347Z,8.37
2023-03-27T19:09:18.696Z,7.47
2023-03-27T19:11:46.867Z,9.60
2023-03-27T19:14:14.960Z,9.60
2023-03-27T19:16:44.517Z,7.10
2023-03-27T19:19:12.735Z,7.17
2023-03-27T19:21:40.771Z,8.80
2023-03-27T19:24:08.946Z,6.00
2023-03-27T19:26:37.486Z,5.83
2023-03-27T19:29:06.259Z,4.53
2023-03-27T19:31:34.321Z,7.50
2023-03-27T19:34:03.884Z,3.87
2023-03-27T19:36:32.806Z,8.93
2023-03-27T19:39:01.135Z,13.63
2023-03-27T19:41:29.337Z,13.67
2023-03-27T19:43:59.664Z,16.70
2023-03-27T19:46:29.262Z,10.07
2023-03-27T19:48:57.401Z,11.13
2023-03-27T19:51:26.800Z,9.30
2023-03-27T19:53:55.624Z,14.67
2023-03-27T19:56:23.906Z,28.17
2023-03-27T19:58:52.405Z,20.60
2023-03-27T20:01:21.528Z,19.33
2023-03-27T20:03:49.888Z,17.33
2023-03-27T20:06:19.551Z,17.47
2023-03-27T20:08:49.005Z,17.70
2023-03-27T20:11:20.408Z,23.13
2023-03-27T20:13:56.130Z,20.80
2023-03-27T20:16:27.342Z,17.87
2023-03-27T20:19:04.592Z,15.27
2023-03-27T20:21:34.449Z,12.73
2023-03-27T20:24:05.722Z,11.20
2023-03-27T20:26:38.938Z,9.47
2023-03-27T20:29:07.661Z,9.60
2023-03-27T20:31:36.226Z,11.03
2023-03-27T20:34:05.362Z,13.23
2023-03-27T20:36:35.053Z,12.33
2023-03-27T20:39:07.042Z,12.80
2023-03-27T20:41:39.073Z,12.27
2023-03-27T20:44:15.965Z,12.13
2023-03-27T20:46:47.338Z,11.63
2023-03-27T20:49:37.522Z,10.97
2023-03-27T20:52:11.771Z,11.53
2023-03-27T20:54:41.444Z,12.13
2023-03-27T20:57:10.008Z,11.87
2023-03-27T20:59:38.285Z,13.00
2023-03-27T21:02:06.483Z,10.87
2023-03-27T21:04:34.441Z,11.47
2023-03-27T21:07:02.453Z,12.57
2023-03-27T21:09:30.604Z,15.87
2023-03-27T21:12:01.350Z,13.67
2023-03-27T21:14:29.400Z,14.53
2023-03-27T21:16:57.486Z,23.17
2023-03-27T21:19:25.517Z,29.83
2023-03-27T21:21:53.641Z,45.10
2023-03-27T21:24:21.850Z,22.80
2023-03-27T21:26:49.832Z,18.17
2023-03-27T21:29:20.931Z,13.53
2023-03-27T21:31:49.059Z,17.03
2023-03-27T21:34:17.174Z,17.43
2023-03-27T21:36:45.267Z,18.07
2023-03-27T21:39:13.525Z,17.17
2023-03-27T21:41:41.538Z,19.13
2023-03-27T21:44:09.782Z,18.20
2023-03-27T21:46:39.202Z,17.73
2023-03-27T21:49:07.359Z,17.77
2023-03-27T21:51:36.118Z,16.07
2023-03-27T21:54:04.911Z,18.80
2023-03-27T21:56:33.456Z,20.27
2023-03-27T21:59:01.789Z,21.33
2023-03-27T22:01:30.645Z,28.03
2023-03-27T22:04:02.304Z,24.53
2023-03-27T22:06:31.025Z,21.77
2023-03-27T22:08:59.619Z,27.40
2023-03-27T22:11:29.026Z,23.07
2023-03-27T22:13:57.179Z,24.13
2023-03-27T22:16:25.689Z,22.97
2023-03-27T22:18:54.497Z,24.27
2023-03-27T22:21:27.512Z,22.37
2023-03-27T22:23:57.099Z,23.50
2023-03-27T22:26:26.762Z,37.13
2023-03-27T22:28:56.624Z,41.50
2023-03-27T22:31:28.278Z,31.77
2023-03-27T22:33:58.047Z,34.20
2023-03-27T22:36:27.888Z,33.63
2023-03-27T22:38:55.972Z,35.20
2023-03-27T22:41:24.126Z,35.97
2023-03-27T22:43:52.508Z,35.10
2023-03-27T22:46:22.543Z,31.60
2023-03-27T22:48:55.354Z,30.80
2023-03-27T22:51:24.129Z,28.67
2023-03-27T22:53:55.112Z,26.27
2023-03-27T22:56:23.386Z,25.83
2023-03-27T22:58:51.520Z,25.17
2023-03-27T23:01:19.835Z,23.03
2023-03-27T23:03:49.668Z,29.43
2023-03-27T23:06:19.087Z,39.13
2023-03-27T23:08:48.421Z,33.07
2023-03-27T23:11:18.587Z,49.60
2023-03-27T23:13:46.883Z,48.93
2023-03-27T23:16:15.853Z,73.03
2023-03-27T23:18:44.308Z,67.87
2023-03-27T23:21:16.705Z,67.17
2023-03-27T23:23:45.796Z,47.60
2023-03-27T23:26:13.937Z,52.33
2023-03-27T23:28:44.061Z,47.07
2023-03-27T23:31:14.624Z,46.73
2023-03-27T23:33:44.552Z,45.57
2023-03-27T23:36:14.724Z,35.20
2023-03-27T23:38:43.490Z,32.70
2023-03-27T23:41:13.154Z,18.93
2023-03-27T23:43:41.909Z,13.70
2023-03-27T23:46:13.448Z,15.53
2023-03-27T23:48:43.947Z,17.67
2023-03-27T23:51:13.647Z,12.33
2023-03-27T23:53:42.601Z,13.27
2023-03-27T23:56:11.742Z,20.20
2023-03-27T23:58:40.357Z,14.33
